Terminal Aerodrome Forecast
Issued by NWS Portland, ME

Current Version | Previous Version | Text Only | Print | Product List | Glossary On
Versions: 1 2 3 4 5 6 7 8 9 10 11 12 13 14 15 16 17 18 19 20 21
000
FTUS41 KGYX 011100
TAFPWM
TAF
KPWM 011120Z 0112/0212 19005KT P6SM SCT080
     FM011700 18010KT P6SM SCT045 SCT080
     FM020000 19004KT P6SM SCT120 BKN200=

USA.gov is the U.S. government's official web portal to all federal, state and local government web resources and services.